createdAt,value
2022-08-05T00:00:18.332Z,1.92
2022-08-05T00:02:51.479Z,2.03
2022-08-05T00:05:27.201Z,2.00
2022-08-05T00:08:32.615Z,2.35
2022-08-05T00:11:00.361Z,2.10
2022-08-05T00:13:38.841Z,2.13
2022-08-05T00:16:10.937Z,2.03
2022-08-05T00:18:42.159Z,2.13
2022-08-05T00:21:11.097Z,2.00
2022-08-05T00:23:45.643Z,2.10
2022-08-05T00:26:22.370Z,2.00
2022-08-05T00:28:52.344Z,2.67
2022-08-05T00:31:53.370Z,2.17
2022-08-05T00:34:53.755Z,2.10
2022-08-05T00:37:10.999Z,2.40
2022-08-05T00:39:57.480Z,2.22
2022-08-05T00:42:33.281Z,2.20
2022-08-05T00:45:03.602Z,2.90
2022-08-05T00:47:52.961Z,2.80
2022-08-05T00:50:20.970Z,2.60
2022-08-05T00:52:49.549Z,2.90
2022-08-05T00:55:21.649Z,2.15
2022-08-05T00:57:58.781Z,2.50
2022-08-05T01:00:32.040Z,2.10
2022-08-05T01:03:03.233Z,2.13
2022-08-05T01:05:36.501Z,2.47
2022-08-05T01:08:40.292Z,2.88
2022-08-05T01:10:56.197Z,2.50
2022-08-05T01:13:57.823Z,2.42
2022-08-05T01:16:30.307Z,2.70
2022-08-05T01:19:07.721Z,2.45
2022-08-05T01:21:58.282Z,2.67
2022-08-05T01:24:48.869Z,2.20
2022-08-05T01:27:33.930Z,2.30
2022-08-05T01:30:17.715Z,2.00
2022-08-05T01:32:50.741Z,2.20
2022-08-05T01:35:50.656Z,1.98
2022-08-05T01:38:27.110Z,2.17
2022-08-05T01:41:01.575Z,1.90
2022-08-05T01:43:30.828Z,2.30
2022-08-05T01:46:07.122Z,2.10
2022-08-05T01:48:49.825Z,1.90
2022-08-05T01:51:19.886Z,1.80
2022-08-05T01:53:57.922Z,1.90
2022-08-05T01:58:11.341Z,1.70
2022-08-05T01:59:22.017Z,1.80
2022-08-05T02:01:58.023Z,2.00
2022-08-05T02:04:29.965Z,2.13
2022-08-05T02:06:59.939Z,2.10
2022-08-05T02:09:31.880Z,2.05
2022-08-05T02:12:10.162Z,2.30
2022-08-05T02:14:47.112Z,1.90
2022-08-05T02:18:27.469Z,2.00
2022-08-05T02:20:20.477Z,2.00
2022-08-05T02:22:56.349Z,1.88
2022-08-05T02:25:33.300Z,1.83
2022-08-05T02:28:08.766Z,1.65
2022-08-05T02:30:54.338Z,2.08
2022-08-05T02:33:35.977Z,1.75
2022-08-05T02:36:13.284Z,2.25
2022-08-05T02:38:53.657Z,2.10
2022-08-05T02:41:23.634Z,1.75
2022-08-05T02:44:02.937Z,1.92
2022-08-05T02:46:35.214Z,1.70
2022-08-05T02:49:07.233Z,1.60
2022-08-05T02:52:03.190Z,1.88
2022-08-05T02:54:35.999Z,2.00
2022-08-05T02:57:09.799Z,1.35
2022-08-05T02:59:48.124Z,1.88
2022-08-05T03:02:21.256Z,1.70
2022-08-05T03:04:54.017Z,1.75
2022-08-05T03:07:40.473Z,1.65
2022-08-05T03:10:13.355Z,1.80
2022-08-05T03:12:41.804Z,2.00
2022-08-05T03:15:12.346Z,2.10
2022-08-05T03:17:41.476Z,1.58
2022-08-05T03:20:13.442Z,1.60
2022-08-05T03:22:44.221Z,1.90
2022-08-05T03:25:32.629Z,2.00
2022-08-05T03:28:08.437Z,2.00
2022-08-05T03:30:38.182Z,1.85
2022-08-05T03:33:07.602Z,1.77
2022-08-05T03:35:40.514Z,1.63
2022-08-05T03:38:11.610Z,1.80
2022-08-05T03:40:41.480Z,1.70
2022-08-05T03:43:58.794Z,1.90
2022-08-05T03:46:02.526Z,1.63
2022-08-05T03:48:35.354Z,1.50
2022-08-05T03:52:39.019Z,1.50
2022-08-05T03:55:50.143Z,1.88
2022-08-05T03:56:53.856Z,1.80
2022-08-05T03:59:26.321Z,1.50
2022-08-05T04:01:59.486Z,1.50
2022-08-05T04:04:30.455Z,1.52
2022-08-05T04:07:01.651Z,1.55
2022-08-05T04:09:32.707Z,1.50
2022-08-05T04:12:05.269Z,1.50
2022-08-05T04:14:52.531Z,1.58
2022-08-05T04:17:20.530Z,1.38
2022-08-05T04:19:54.570Z,1.83
2022-08-05T04:22:28.134Z,1.50
2022-08-05T04:24:56.136Z,1.42
2022-08-05T04:27:42.056Z,1.02
2022-08-05T04:30:13.235Z,1.42
2022-08-05T04:32:42.077Z,1.23
2022-08-05T04:35:17.417Z,1.20
2022-08-05T04:38:02.555Z,1.13
2022-08-05T04:40:36.047Z,1.50
2022-08-05T04:43:04.372Z,1.38
2022-08-05T04:45:48.832Z,1.35
2022-08-05T04:48:28.151Z,1.20
2022-08-05T04:51:03.263Z,1.33
2022-08-05T04:53:40.516Z,1.20
2022-08-05T04:56:33.365Z,1.23
2022-08-05T04:58:57.847Z,1.10
2022-08-05T05:02:05.445Z,1.58
2022-08-05T05:04:14.951Z,1.27
2022-08-05T05:06:49.137Z,1.17
2022-08-05T05:09:22.055Z,1.48
2022-08-05T05:11:54.405Z,1.02
2022-08-05T05:14:31.537Z,1.02
2022-08-05T05:17:00.331Z,1.20
2022-08-05T05:19:36.520Z,1.10
2022-08-05T05:22:24.551Z,1.30
2022-08-05T05:24:56.757Z,1.10
2022-08-05T05:27:45.767Z,1.20
2022-08-05T05:30:30.914Z,1.30
2022-08-05T05:33:03.814Z,1.17
2022-08-05T05:35:44.864Z,1.10
2022-08-05T05:38:14.113Z,1.08
2022-08-05T05:40:49.989Z,0.90
2022-08-05T05:43:22.394Z,1.00
2022-08-05T05:46:15.867Z,1.00
2022-08-05T05:48:48.217Z,1.10
2022-08-05T05:51:21.081Z,0.95
2022-08-05T05:53:57.134Z,1.20
2022-08-05T05:56:32.217Z,1.10
2022-08-05T05:59:03.475Z,0.95
2022-08-05T06:01:37.078Z,0.95
2022-08-05T06:04:07.270Z,0.90
2022-08-05T06:06:35.448Z,0.80
2022-08-05T06:09:04.214Z,0.90
2022-08-05T06:11:33.905Z,1.05
2022-08-05T06:14:02.207Z,0.80
2022-08-05T06:16:36.615Z,0.70
2022-08-05T06:19:07.580Z,0.90
2022-08-05T06:21:38.763Z,0.70
2022-08-05T06:24:11.594Z,0.90
2022-08-05T06:26:51.302Z,0.82
2022-08-05T06:29:42.802Z,1.00
2022-08-05T06:32:20.950Z,0.70
2022-08-05T06:34:56.247Z,0.77
2022-08-05T06:37:56.137Z,0.75
2022-08-05T06:40:18.061Z,0.63
2022-08-05T06:42:51.904Z,0.80
2022-08-05T06:45:45.135Z,0.88
2022-08-05T06:48:44.433Z,0.55
2022-08-05T06:50:58.424Z,1.10
2022-08-05T06:53:29.129Z,0.80
2022-08-05T06:55:58.166Z,0.60
2022-08-05T06:58:29.593Z,0.73
2022-08-05T07:01:03.447Z,0.70
2022-08-05T07:03:33.190Z,0.70
2022-08-05T07:06:05.992Z,0.52
2022-08-05T07:08:47.937Z,0.77
2022-08-05T07:11:25.642Z,0.73
2022-08-05T07:14:15.845Z,0.55
2022-08-05T07:17:59.180Z,0.70
2022-08-05T07:22:30.092Z,0.50
2022-08-05T07:25:54.378Z,0.50
2022-08-05T07:27:58.239Z,0.68
2022-08-05T07:30:33.596Z,0.40
2022-08-05T07:33:05.396Z,0.55
2022-08-05T07:36:02.437Z,0.60
2022-08-05T07:38:33.472Z,0.30
2022-08-05T07:42:06.759Z,0.43
2022-08-05T07:43:56.067Z,0.55
2022-08-05T07:46:27.281Z,0.57
2022-08-05T07:49:03.302Z,2.67
2022-08-05T07:51:40.882Z,1.50
2022-08-05T07:54:18.861Z,0.88
2022-08-05T07:57:14.860Z,1.00
2022-08-05T07:59:40.225Z,0.50
2022-08-05T08:02:16.397Z,0.80
2022-08-05T08:04:49.819Z,0.65
2022-08-05T08:07:22.415Z,0.82
2022-08-05T08:09:54.864Z,0.70
2022-08-05T08:12:32.003Z,0.50
2022-08-05T08:15:15.340Z,0.52
2022-08-05T08:17:52.611Z,0.47
2022-08-05T08:20:45.344Z,0.60
2022-08-05T08:23:20.972Z,0.80
2022-08-05T08:26:02.801Z,0.50
2022-08-05T08:28:35.524Z,0.40
2022-08-05T08:31:05.779Z,0.35
2022-08-05T08:33:36.068Z,0.43
2022-08-05T08:36:37.584Z,0.45
2022-08-05T08:38:57.091Z,0.60
2022-08-05T08:41:52.671Z,0.43
2022-08-05T08:45:20.709Z,0.70
2022-08-05T08:47:22.294Z,0.45
2022-08-05T08:50:23.139Z,0.63
2022-08-05T08:52:51.641Z,0.65
2022-08-05T08:56:03.175Z,0.70
2022-08-05T08:58:12.857Z,0.30
2022-08-05T09:00:41.823Z,0.63
2022-08-05T09:03:12.337Z,0.70
2022-08-05T09:06:08.188Z,0.40
2022-08-05T09:08:33.788Z,0.38
2022-08-05T09:11:01.944Z,0.60
2022-08-05T09:13:31.509Z,0.70
2022-08-05T09:16:01.053Z,0.30
2022-08-05T09:18:30.672Z,0.47
2022-08-05T09:21:00.029Z,0.32
2022-08-05T09:23:28.870Z,0.40
2022-08-05T09:26:10.299Z,0.40
2022-08-05T09:28:44.283Z,0.40
2022-08-05T09:31:43.899Z,0.80
2022-08-05T09:34:04.153Z,0.50
2022-08-05T09:36:54.132Z,0.47
2022-08-05T09:39:27.573Z,0.88
2022-08-05T09:42:13.444Z,2.47
2022-08-05T09:46:05.222Z,0.57
2022-08-05T09:47:56.801Z,0.60
2022-08-05T09:50:38.415Z,0.43
2022-08-05T09:53:22.981Z,0.47
2022-08-05T09:56:04.830Z,0.40
2022-08-05T09:58:41.975Z,0.70
2022-08-05T10:01:15.330Z,0.40
2022-08-05T10:04:00.092Z,0.35
2022-08-05T10:06:29.414Z,0.25
2022-08-05T10:09:25.096Z,0.47
2022-08-05T10:12:30.288Z,0.80
2022-08-05T10:15:13.871Z,0.30
2022-08-05T10:17:54.469Z,0.20
2022-08-05T10:20:26.508Z,0.40
2022-08-05T10:22:55.934Z,0.40
2022-08-05T10:25:28.340Z,0.28
2022-08-05T10:28:12.739Z,0.40
2022-08-05T10:32:48.444Z,0.30
2022-08-05T10:33:36.181Z,0.40
2022-08-05T10:36:05.443Z,0.47
2022-08-05T10:38:35.493Z,0.40
2022-08-05T10:41:12.398Z,0.68
2022-08-05T10:43:51.913Z,0.40
2022-08-05T10:46:23.767Z,0.40
2022-08-05T10:49:00.592Z,0.47
2022-08-05T10:51:57.684Z,0.45
2022-08-05T10:55:03.354Z,1.13
2022-08-05T10:57:34.294Z,0.43
2022-08-05T11:00:18.231Z,0.30
2022-08-05T11:03:25.563Z,0.38
2022-08-05T11:06:15.344Z,0.50
2022-08-05T11:09:13.152Z,0.40
2022-08-05T11:11:53.225Z,0.55
2022-08-05T11:15:11.689Z,0.32
2022-08-05T11:17:57.402Z,0.30
2022-08-05T11:20:44.317Z,0.35
2022-08-05T11:24:03.423Z,0.50
2022-08-05T11:26:28.328Z,0.32
2022-08-05T11:29:02.418Z,0.30
2022-08-05T11:31:56.714Z,0.52
2022-08-05T11:34:39.983Z,0.40
2022-08-05T11:38:36.635Z,0.30
2022-08-05T11:41:14.031Z,0.28
2022-08-05T11:44:04.491Z,0.40
2022-08-05T11:46:35.091Z,0.52
2022-08-05T11:49:07.912Z,0.30
2022-08-05T11:51:44.868Z,0.30
2022-08-05T11:54:33.795Z,0.40
2022-08-05T11:57:07.713Z,0.40
2022-08-05T11:59:49.976Z,0.30
2022-08-05T12:02:24.242Z,0.40
2022-08-05T12:05:07.422Z,0.50
2022-08-05T12:08:08.028Z,0.40
2022-08-05T12:10:45.612Z,0.35
2022-08-05T12:13:17.193Z,0.40
2022-08-05T12:15:50.125Z,0.30
2022-08-05T12:18:32.737Z,0.20
2022-08-05T12:21:13.155Z,0.50
2022-08-05T12:23:53.803Z,0.40
2022-08-05T12:26:23.157Z,0.22
2022-08-05T12:28:52.582Z,0.43
2022-08-05T12:31:33.032Z,0.40
2022-08-05T12:34:09.847Z,0.50
2022-08-05T12:36:52.358Z,0.30
2022-08-05T12:39:20.541Z,0.50
2022-08-05T12:41:48.866Z,0.47
2022-08-05T12:44:32.628Z,0.32
2022-08-05T12:47:02.467Z,0.38
2022-08-05T12:50:03.253Z,0.60
2022-08-05T12:52:37.724Z,0.40
2022-08-05T12:55:22.148Z,0.20
2022-08-05T12:58:48.550Z,0.50
2022-08-05T13:02:00.256Z,0.55
2022-08-05T13:03:32.629Z,0.50
2022-08-05T13:06:01.087Z,0.30
2022-08-05T13:08:32.289Z,0.30
2022-08-05T13:11:02.132Z,0.30
2022-08-05T13:14:05.324Z,0.35
2022-08-05T13:16:20.847Z,0.60
2022-08-05T13:18:55.282Z,0.40
2022-08-05T13:21:28.333Z,0.68
2022-08-05T13:24:08.740Z,0.55
2022-08-05T13:26:37.325Z,0.70
2022-08-05T13:29:05.509Z,0.70
2022-08-05T13:32:04.609Z,0.55
2022-08-05T13:34:25.949Z,0.52
2022-08-05T13:36:54.625Z,0.70
2022-08-05T13:40:16.189Z,0.80
2022-08-05T13:42:14.258Z,0.73
2022-08-05T13:44:45.877Z,0.50
2022-08-05T13:47:34.748Z,0.47
2022-08-05T13:50:04.347Z,0.75
2022-08-05T13:52:35.275Z,0.60
2022-08-05T13:55:07.926Z,0.60
2022-08-05T13:57:48.579Z,0.60
2022-08-05T14:00:17.496Z,0.50
2022-08-05T14:02:45.599Z,0.93
2022-08-05T14:05:19.561Z,0.70
2022-08-05T14:08:11.126Z,0.68
2022-08-05T14:10:50.810Z,0.70
2022-08-05T14:13:18.848Z,0.60
2022-08-05T14:16:04.903Z,0.75
2022-08-05T14:18:37.984Z,0.60
2022-08-05T14:22:08.143Z,0.73
2022-08-05T14:23:56.195Z,0.60
2022-08-05T14:26:35.589Z,0.57
2022-08-05T14:29:16.469Z,0.70
2022-08-05T14:32:03.583Z,0.55
2022-08-05T14:34:34.989Z,1.00
2022-08-05T14:37:04.027Z,0.63
2022-08-05T14:39:50.309Z,0.63
2022-08-05T14:42:22.290Z,0.70
2022-08-05T14:44:50.811Z,0.75
2022-08-05T14:47:58.538Z,0.52
2022-08-05T14:50:17.783Z,0.50
2022-08-05T14:52:58.709Z,0.50
2022-08-05T14:55:38.581Z,0.60
2022-08-05T14:58:10.976Z,0.70
2022-08-05T15:00:58.449Z,0.65
2022-08-05T15:03:33.151Z,0.40
2022-08-05T15:06:06.920Z,0.50
2022-08-05T15:09:01.442Z,1.00
2022-08-05T15:11:50.930Z,0.85
2022-08-05T15:14:34.264Z,0.95
2022-08-05T15:17:05.318Z,0.68
2022-08-05T15:19:38.230Z,1.08
2022-08-05T15:22:08.762Z,0.82
2022-08-05T15:24:37.132Z,0.80
2022-08-05T15:27:09.029Z,1.00
2022-08-05T15:29:41.968Z,1.02
2022-08-05T15:32:10.206Z,1.00
2022-08-05T15:34:38.293Z,1.08
2022-08-05T15:37:14.814Z,0.90
2022-08-05T15:41:03.178Z,0.80
2022-08-05T15:42:56.273Z,0.80
2022-08-05T15:45:38.546Z,1.20
2022-08-05T15:48:07.196Z,1.02
2022-08-05T15:50:35.797Z,0.93
2022-08-05T15:53:06.391Z,1.30
2022-08-05T15:56:02.222Z,0.85
2022-08-05T15:58:25.208Z,0.57
2022-08-05T16:01:11.867Z,0.60
2022-08-05T16:03:44.692Z,1.02
2022-08-05T16:06:20.359Z,0.70
2022-08-05T16:08:50.324Z,1.08
2022-08-05T16:11:21.108Z,0.70
2022-08-05T16:14:08.014Z,1.02
2022-08-05T16:16:38.620Z,0.90
2022-08-05T16:19:06.636Z,0.70
2022-08-05T16:21:58.894Z,1.00
2022-08-05T16:24:41.131Z,0.60
2022-08-05T16:27:15.948Z,1.17
2022-08-05T16:29:50.308Z,1.10
2022-08-05T16:32:28.622Z,1.08
2022-08-05T16:34:58.798Z,0.90
2022-08-05T16:38:03.707Z,0.93
2022-08-05T16:40:26.669Z,1.17
2022-08-05T16:42:57.902Z,0.82
2022-08-05T16:46:06.068Z,1.05
2022-08-05T16:48:25.221Z,1.02
2022-08-05T16:50:53.776Z,1.17
2022-08-05T16:53:32.250Z,1.10
2022-08-05T16:56:11.733Z,0.82
2022-08-05T16:58:40.765Z,0.93
2022-08-05T17:01:10.585Z,0.90
2022-08-05T17:03:40.099Z,0.95
2022-08-05T17:06:08.909Z,0.75
2022-08-05T17:08:52.999Z,0.90
2022-08-05T17:11:23.677Z,0.85
2022-08-05T17:14:00.363Z,1.73
2022-08-05T17:16:36.014Z,0.80
2022-08-05T17:19:07.017Z,0.75
2022-08-05T17:21:36.599Z,0.90
2022-08-05T17:24:19.794Z,0.65
2022-08-05T17:26:55.315Z,0.82
2022-08-05T17:29:40.080Z,0.70
2022-08-05T17:32:11.775Z,0.65
2022-08-05T17:34:48.015Z,0.95
2022-08-05T17:37:40.443Z,0.80
2022-08-05T17:40:11.013Z,0.90
2022-08-05T17:42:42.842Z,0.90
2022-08-05T17:45:21.776Z,1.00
2022-08-05T17:47:54.433Z,0.90
2022-08-05T17:50:30.300Z,0.90
2022-08-05T17:53:00.609Z,1.00
2022-08-05T17:55:38.468Z,0.77
2022-08-05T17:58:11.063Z,0.90
2022-08-05T18:00:45.323Z,0.98
2022-08-05T18:03:39.367Z,1.02
2022-08-05T18:06:12.357Z,1.10
2022-08-05T18:08:45.515Z,0.93
2022-08-05T18:11:23.717Z,0.82
2022-08-05T18:13:55.406Z,1.00
2022-08-05T18:16:23.559Z,0.68
2022-08-05T18:18:51.588Z,1.10
2022-08-05T18:21:22.884Z,0.68
2022-08-05T18:23:54.516Z,1.00
2022-08-05T18:26:29.258Z,0.85
2022-08-05T18:29:00.003Z,0.80
2022-08-05T18:31:33.722Z,0.80
2022-08-05T18:34:03.689Z,0.90
2022-08-05T18:36:36.406Z,1.05
2022-08-05T18:39:06.697Z,0.80
2022-08-05T18:42:00.486Z,0.60
2022-08-05T18:44:34.743Z,0.80
2022-08-05T18:47:04.057Z,1.00
2022-08-05T18:49:57.846Z,0.77
2022-08-05T18:52:36.960Z,0.50
2022-08-05T18:55:10.438Z,0.80
2022-08-05T18:57:43.019Z,0.82
2022-08-05T19:00:20.250Z,0.70
2022-08-05T19:02:49.034Z,0.70
2022-08-05T19:06:11.728Z,0.80
2022-08-05T19:08:13.457Z,0.60
2022-08-05T19:10:41.929Z,0.70
2022-08-05T19:13:12.353Z,1.00
2022-08-05T19:16:00.011Z,0.65
2022-08-05T19:18:32.569Z,1.00
2022-08-05T19:21:00.586Z,0.80
2022-08-05T19:24:06.839Z,0.70
2022-08-05T19:26:19.955Z,0.70
2022-08-05T19:28:48.056Z,0.82
2022-08-05T19:31:17.973Z,1.08
2022-08-05T19:33:48.261Z,1.02
2022-08-05T19:36:25.625Z,0.82
2022-08-05T19:39:01.108Z,0.88
2022-08-05T19:41:58.360Z,0.90
2022-08-05T19:44:18.826Z,1.20
2022-08-05T19:46:47.291Z,1.10
2022-08-05T19:49:18.582Z,0.80
2022-08-05T19:52:04.551Z,1.05
2022-08-05T19:54:37.323Z,0.98
2022-08-05T19:57:09.535Z,1.02
2022-08-05T20:00:00.436Z,0.82
2022-08-05T20:02:30.475Z,1.10
2022-08-05T20:05:00.047Z,1.15
2022-08-05T20:07:45.987Z,0.93
2022-08-05T20:10:24.359Z,1.00
2022-08-05T20:12:53.239Z,0.70
2022-08-05T20:15:23.398Z,1.65
2022-08-05T20:18:33.424Z,0.77
2022-08-05T20:21:00.103Z,0.93
2022-08-05T20:23:40.102Z,0.95
2022-08-05T20:26:18.438Z,1.00
2022-08-05T20:28:48.598Z,1.15
2022-08-05T20:31:17.117Z,0.90
2022-08-05T20:33:45.706Z,1.08
2022-08-05T20:36:17.841Z,1.15
2022-08-05T20:38:53.255Z,0.80
2022-08-05T20:41:26.992Z,0.70
2022-08-05T20:43:59.988Z,1.10
2022-08-05T20:46:30.739Z,0.95
2022-08-05T20:49:00.546Z,1.40
2022-08-05T20:51:30.812Z,1.45
2022-08-05T20:54:01.188Z,0.88
2022-08-05T20:56:41.920Z,1.20
2022-08-05T20:59:14.102Z,1.02
2022-08-05T21:01:47.202Z,0.80
2022-08-05T21:04:15.495Z,0.80
2022-08-05T21:06:45.064Z,1.58
2022-08-05T21:09:15.029Z,1.00
2022-08-05T21:12:10.694Z,1.00
2022-08-05T21:14:35.252Z,0.80
2022-08-05T21:17:05.327Z,0.88
2022-08-05T21:19:47.067Z,0.82
2022-08-05T21:22:17.701Z,1.00
2022-08-05T21:24:48.853Z,1.05
2022-08-05T21:27:25.147Z,0.65
2022-08-05T21:29:55.365Z,0.77
2022-08-05T21:32:24.437Z,0.90
2022-08-05T21:35:06.882Z,0.90
2022-08-05T21:37:47.118Z,0.70
2022-08-05T21:40:16.600Z,0.70
2022-08-05T21:42:47.205Z,1.00
2022-08-05T21:45:24.300Z,0.80
2022-08-05T21:47:56.432Z,0.93
2022-08-05T21:50:26.194Z,0.82
2022-08-05T21:52:58.544Z,0.88
2022-08-05T21:56:01.668Z,1.00
2022-08-05T21:58:16.866Z,0.80
2022-08-05T22:00:51.410Z,0.90
2022-08-05T22:03:48.255Z,1.00
2022-08-05T22:06:08.214Z,0.90
2022-08-05T22:08:36.349Z,0.82
2022-08-05T22:11:11.967Z,1.15
2022-08-05T22:14:19.510Z,0.90
2022-08-05T22:16:41.960Z,0.90
2022-08-05T22:20:02.181Z,1.00
2022-08-05T22:22:07.802Z,0.80
2022-08-05T22:24:55.918Z,1.00
2022-08-05T22:28:10.942Z,1.60
2022-08-05T22:30:35.222Z,1.15
2022-08-05T22:33:04.013Z,0.90
2022-08-05T22:35:48.949Z,0.77
2022-08-05T22:38:19.608Z,1.00
2022-08-05T22:40:49.410Z,0.85
2022-08-05T22:43:36.654Z,1.17
2022-08-05T22:46:13.110Z,1.40
2022-08-05T22:48:49.045Z,1.17
2022-08-05T22:51:22.974Z,1.15
2022-08-05T22:53:57.971Z,1.17
2022-08-05T22:56:30.381Z,1.00
2022-08-05T22:59:00.025Z,1.02
2022-08-05T23:01:50.918Z,1.17
2022-08-05T23:04:22.182Z,1.00
2022-08-05T23:06:50.225Z,1.20
2022-08-05T23:09:27.315Z,1.10
2022-08-05T23:12:06.797Z,1.30
2022-08-05T23:14:35.041Z,1.15
2022-08-05T23:17:21.977Z,1.27
2022-08-05T23:19:56.313Z,1.30
2022-08-05T23:22:27.498Z,1.50
2022-08-05T23:24:56.400Z,1.10
2022-08-05T23:27:28.848Z,1.23
2022-08-05T23:30:11.617Z,1.30
2022-08-05T23:32:45.316Z,1.08
2022-08-05T23:35:13.689Z,1.25
2022-08-05T23:37:41.730Z,1.20
2022-08-05T23:40:12.230Z,1.40
2022-08-05T23:42:41.799Z,1.50
2022-08-05T23:45:15.993Z,1.08
2022-08-05T23:47:48.155Z,1.13
2022-08-05T23:50:17.132Z,1.55
2022-08-05T23:52:49.951Z,1.50
2022-08-05T23:55:19.997Z,1.65
2022-08-05T23:57:51.241Z,1.45
